Time;durP1;ratioP1;P1;durP2;ratioP2;P2;SDS_P1;SDS_P2;PMS_P1;PMS_P2;Temp;Humidity;BMP_temperature;BMP_pressure;BME280_temperature;BME280_humidity;BME280_pressure;Samples;Min_cycle;Max_cycle;Signal;HPM_P1;HPM_P2
2021/07/09 00:01:02;;;;;;;12.30;7.93;;;;;;;22.99;70.95;100273.80;126814;1089;102849;-80
2021/07/09 00:03:50;;;;;;;9.43;8.43;;;;;;;22.98;70.65;100278.28;126554;1089;114297;-80
2021/07/09 00:06:38;;;;;;;10.23;7.77;;;;;;;22.99;70.74;100285.28;126840;1090;102948;-80
2021/07/09 00:09:27;;;;;;;11.47;7.53;;;;;;;23.01;71.03;100282.49;126682;1090;114514;-80
2021/07/09 00:12:15;;;;;;;13.17;7.60;;;;;;;23.04;70.57;100285.73;126808;1090;102956;-80
2021/07/09 00:15:04;;;;;;;11.10;7.57;;;;;;;23.07;70.34;100264.20;126682;1090;114596;-80
2021/07/09 00:17:52;;;;;;;14.57;7.90;;;;;;;23.07;70.63;100260.69;126793;1088;102975;-78
2021/07/09 00:20:39;;;;;;;12.80;7.77;;;;;;;23.08;70.39;100246.41;126622;1088;114629;-79
2021/07/09 00:23:28;;;;;;;8.73;7.83;;;;;;;23.08;70.30;100239.28;126596;1088;102994;-79
2021/07/09 00:26:16;;;;;;;15.13;8.53;;;;;;;23.06;71.14;100246.55;126671;1088;114422;-79
2021/07/09 00:29:04;;;;;;;10.93;7.83;;;;;;;23.06;70.51;100219.10;126796;1088;102876;-79
2021/07/09 00:31:53;;;;;;;11.53;8.20;;;;;;;23.06;70.59;100227.09;126693;1090;114583;-79
2021/07/09 00:34:40;;;;;;;14.73;8.67;;;;;;;23.06;70.33;100235.06;126786;1089;102948;-78
2021/07/09 00:37:28;;;;;;;13.13;7.80;;;;;;;23.05;70.01;100228.91;126771;1090;103044;-79
2021/07/09 00:40:17;;;;;;;13.93;7.83;;;;;;;23.04;69.98;100244.99;126635;1088;114244;-79
2021/07/09 00:43:05;;;;;;;10.83;7.73;;;;;;;23.03;70.38;100236.17;126598;1090;102730;-79
2021/07/09 00:45:53;;;;;;;13.27;8.60;;;;;;;23.02;70.28;100228.32;126742;1089;114467;-79
2021/07/09 00:48:41;;;;;;;13.00;8.00;;;;;;;23.00;70.02;100231.11;126713;1090;102224;-79
2021/07/09 00:51:28;;;;;;;9.00;7.25;;;;;;;22.99;69.85;100241.88;126517;1090;113350;-79
2021/07/09 00:54:16;;;;;;;9.80;7.67;;;;;;;22.99;70.18;100268.48;126610;1090;102935;-79
2021/07/09 00:57:04;;;;;;;11.90;8.47;;;;;;;22.98;70.11;100381.14;126688;1088;113311;-79
2021/07/09 00:59:54;;;;;;;9.93;8.87;;;;;;;22.97;70.57;100412.21;126661;1089;102941;-79
2021/07/09 01:02:44;;;;;;;10.67;8.87;;;;;;;22.94;70.75;100430.24;126591;1090;114123;-80
2021/07/09 01:05:32;;;;;;;11.37;8.17;;;;;;;22.91;70.26;100394.10;126645;1090;102884;-80
2021/07/09 01:08:19;;;;;;;9.23;8.33;;;;;;;23.03;70.42;100414.39;126656;1089;114454;-80
2021/07/09 01:11:09;;;;;;;10.07;8.83;;;;;;;23.10;70.22;100425.38;126635;1089;102941;-80
2021/07/09 01:13:58;;;;;;;10.47;8.63;;;;;;;23.15;70.01;100412.53;126582;1089;113685;-80
2021/07/09 01:16:47;;;;;;;8.50;7.60;;;;;;;23.19;70.01;100427.30;126606;1089;102906;-80
2021/07/09 01:19:35;;;;;;;11.37;8.70;;;;;;;23.24;70.11;100459.69;126654;1089;103776;-80
2021/07/09 01:22:25;;;;;;;10.27;9.17;;;;;;;23.26;70.24;100473.71;126660;1089;114297;-80
2021/07/09 01:25:23;;;;;;;8.30;7.03;;;;;;;23.25;69.51;100456.05;126609;1090;102855;-80
2021/07/09 01:28:11;;;;;;;;;;;;;;;23.23;69.54;100459.81;126638;1089;114126;-80
2021/07/09 01:30:59;;;;;;;7.40;6.67;;;;;;;23.15;69.06;100458.61;126834;1089;102917;-80
2021/07/09 01:33:48;;;;;;;8.73;7.00;;;;;;;23.09;69.67;100468.91;126489;1088;113277;-80
2021/07/09 01:36:36;;;;;;;8.00;6.03;;;;;;;23.06;69.63;100469.16;126817;1090;102811;-80
2021/07/09 01:39:24;;;;;;;8.37;6.00;;;;;;;23.04;69.45;100479.93;126519;1089;114470;-80
2021/07/09 01:42:13;;;;;;;6.73;5.83;;;;;;;22.98;69.56;100484.88;126929;1090;102896;-80
2021/07/09 01:45:00;;;;;;;7.60;6.37;;;;;;;22.90;69.35;100475.70;126761;1090;114093;-80
2021/07/09 01:47:49;;;;;;;6.80;6.10;;;;;;;22.86;70.01;100460.97;126880;1089;101128;-80
2021/07/09 01:50:38;;;;;;;9.60;6.23;;;;;;;22.81;69.73;100447.17;126662;1090;114418;-80
2021/07/09 01:53:26;;;;;;;7.03;6.00;;;;;;;22.78;70.13;100420.80;126846;1089;102927;-79
2021/07/09 01:56:13;;;;;;;8.57;6.20;;;;;;;22.74;69.89;100376.82;126558;1090;114430;-79
2021/07/09 01:59:01;;;;;;;6.87;5.90;;;;;;;22.73;69.68;100359.17;126684;1089;103492;-79
2021/07/09 02:01:49;;;;;;;6.03;5.43;;;;;;;22.68;69.77;100361.38;126624;1089;103039;-80
2021/07/09 02:04:48;;;;;;;7.70;5.77;;;;;;;22.66;69.74;100359.81;126738;1088;114052;-80
2021/07/09 02:07:36;;;;;;;10.25;6.30;;;;;;;22.62;69.71;100353.88;126660;1090;102833;-78
2021/07/09 02:10:31;;;;;;;8.10;6.63;;;;;;;22.62;69.79;100361.84;126571;1090;114615;-80
2021/07/09 02:13:19;;;;;;;7.03;6.10;;;;;;;22.58;69.61;100355.94;126706;1088;102871;-80
2021/07/09 02:16:07;;;;;;;7.07;5.80;;;;;;;22.57;69.73;100350.75;126528;1090;114268;-79
2021/07/09 02:18:55;;;;;;;6.27;5.40;;;;;;;22.56;69.02;100349.91;126859;1089;104109;-80
2021/07/09 02:21:47;;;;;;;8.23;6.27;;;;;;;22.56;69.32;100357.03;126518;1090;114145;-80
2021/07/09 02:24:36;;;;;;;6.37;5.73;;;;;;;22.54;69.53;100358.97;126794;1088;102891;-80
2021/07/09 02:27:24;;;;;;;8.20;6.37;;;;;;;22.53;70.26;100366.10;126705;1088;114092;-80
2021/07/09 02:30:16;;;;;;;7.47;6.47;;;;;;;22.51;70.09;100380.48;126778;1088;102903;-80
2021/07/09 02:33:04;;;;;;;8.80;5.23;;;;;;;22.46;70.21;100367.57;126615;1090;114269;-80
2021/07/09 02:35:52;;;;;;;7.57;5.83;;;;;;;22.48;70.65;100370.11;126667;1089;103400;-80
2021/07/09 02:38:39;;;;;;;7.23;5.97;;;;;;;22.51;70.37;100360.07;126678;1088;114161;-80
2021/07/09 02:41:27;;;;;;;8.60;6.50;;;;;;;22.53;70.10;100350.16;126883;1089;101132;-80
2021/07/09 02:44:15;;;;;;;9.50;5.80;;;;;;;22.51;69.76;100333.48;126723;1089;114392;-80
2021/07/09 02:47:04;;;;;;;8.20;6.13;;;;;;;22.52;69.96;100313.07;126828;1089;102847;-80
2021/07/09 02:49:53;;;;;;;8.00;6.17;;;;;;;22.52;69.88;100299.78;126761;1089;102956;-80
2021/07/09 02:52:40;;;;;;;9.53;7.13;;;;;;;22.52;70.38;100283.83;126644;1089;114163;-79
2021/07/09 02:55:28;;;;;;;10.53;8.27;;;;;;;22.50;70.37;100273.33;126818;1089;102837;-79
2021/07/09 02:58:16;;;;;;;10.77;7.53;;;;;;;22.51;70.04;100271.52;126593;1089;115421;-79
2021/07/09 03:01:04;;;;;;;8.03;6.47;;;;;;;22.52;70.34;100271.39;126713;1090;102913;-79
2021/07/09 03:03:56;;;;;;;9.37;6.73;;;;;;;22.52;70.13;100289.15;126572;1089;113253;-79
2021/07/09 03:06:44;;;;;;;10.47;7.70;;;;;;;22.50;70.14;100283.11;126831;1090;102869;-79
2021/07/09 03:09:31;;;;;;;8.63;7.33;;;;;;;22.43;70.15;100281.91;126577;1089;114553;-79
2021/07/09 03:12:19;;;;;;;10.23;7.07;;;;;;;22.39;70.24;100275.16;126612;1089;103449;-79
2021/07/09 03:15:09;;;;;;;11.00;7.00;;;;;;;22.41;70.72;100262.59;126559;1089;114273;-79
2021/07/09 03:17:57;;;;;;;10.60;6.40;;;;;;;22.43;70.37;100253.52;126636;1088;102874;-79
2021/07/09 03:20:44;;;;;;;8.70;6.80;;;;;;;22.48;70.63;100245.19;126556;1089;114489;-78
2021/07/09 03:23:32;;;;;;;8.27;6.60;;;;;;;22.51;70.45;100242.28;126752;1089;102918;-79
2021/07/09 03:26:20;;;;;;;8.57;6.17;;;;;;;22.53;70.58;100232.36;126695;1090;114263;-79
2021/07/09 03:29:08;;;;;;;6.63;5.83;;;;;;;22.57;71.01;100228.47;126688;1088;102880;-79
2021/07/09 03:31:56;;;;;;;10.23;6.10;;;;;;;22.61;70.40;100214.80;126628;1089;102945;-80
2021/07/09 03:34:44;;;;;;;8.07;6.33;;;;;;;22.68;69.80;100212.49;126705;1090;114208;-80
2021/07/09 03:37:31;;;;;;;8.67;6.50;;;;;;;22.72;70.30;100205.94;126733;1088;103010;-80
2021/07/09 03:40:19;;;;;;;9.85;6.65;;;;;;;22.78;69.73;100202.76;126528;1088;115003;-80
2021/07/09 03:43:07;;;;;;;7.25;6.20;;;;;;;22.82;69.83;100204.25;126684;1089;102863;-79
2021/07/09 03:45:54;;;;;;;6.13;5.60;;;;;;;22.87;69.56;100191.40;126681;1090;114313;-80
2021/07/09 03:48:42;;;;;;;7.80;6.27;;;;;;;22.89;69.51;100177.97;126846;1090;102030;-80
2021/07/09 03:51:31;;;;;;;8.53;6.87;;;;;;;22.88;69.15;100169.16;126643;1090;114279;-80
2021/07/09 03:54:18;;;;;;;10.87;7.27;;;;;;;22.83;68.76;100171.36;126780;1090;103032;-79
2021/07/09 03:57:06;;;;;;;9.53;6.80;;;;;;;22.82;69.26;100163.52;126702;1088;114599;-79
2021/07/09 03:59:54;;;;;;;10.97;6.43;;;;;;;22.85;68.82;100172.08;126661;1090;102850;-79
2021/07/09 04:02:43;;;;;;;7.20;6.40;;;;;;;22.94;68.68;100174.91;126574;1089;114445;-79
2021/07/09 04:05:32;;;;;;;8.20;6.87;;;;;;;23.03;68.84;100192.77;126792;1089;101128;-80
2021/07/09 04:08:20;;;;;;;7.37;6.27;;;;;;;23.08;68.28;100198.53;126799;1090;103108;-80
2021/07/09 04:11:09;;;;;;;8.05;6.10;;;;;;;23.17;68.27;100189.78;126766;1090;102852;-80
2021/07/09 04:13:57;;;;;;;9.00;6.83;;;;;;;23.25;67.92;100183.79;126659;1088;103016;-80
2021/07/09 04:16:45;;;;;;;9.00;6.63;;;;;;;23.32;67.78;100167.16;126585;1090;114365;-80
2021/07/09 04:19:33;;;;;;;9.63;7.53;;;;;;;23.36;67.53;100154.45;126763;1089;102871;-79
2021/07/09 04:22:21;;;;;;;7.50;6.20;;;;;;;23.36;67.28;100144.64;126549;1090;114263;-80
2021/07/09 04:25:11;;;;;;;7.83;5.50;;;;;;;23.37;67.24;100145.48;126689;1090;102910;-80
2021/07/09 04:27:59;;;;;;;12.67;7.63;;;;;;;23.36;67.32;100147.30;126629;1090;114454;-80
2021/07/09 04:30:49;;;;;;;10.20;7.50;;;;;;;23.33;66.54;100144.05;126689;1088;103524;-80
2021/07/09 04:33:39;;;;;;;9.90;6.67;;;;;;;23.31;66.69;100136.19;126748;1089;114354;-80
2021/07/09 04:36:27;;;;;;;8.63;6.70;;;;;;;23.31;66.90;100138.86;126741;1089;103010;-80
2021/07/09 04:39:15;;;;;;;9.80;7.37;;;;;;;23.35;66.64;100142.13;126592;1088;112925;-80
2021/07/09 04:42:06;;;;;;;7.43;6.63;;;;;;;23.38;66.25;100137.36;126683;1089;102660;-80
2021/07/09 04:44:53;;;;;;;7.00;6.03;;;;;;;23.43;66.20;100151.11;126599;1090;114247;-80
2021/07/09 04:47:42;;;;;;;11.43;6.47;;;;;;;23.50;65.86;100149.58;126843;1088;102843;-80
2021/07/09 04:50:30;;;;;;;8.37;6.70;;;;;;;23.60;65.98;100146.16;126709;1088;102910;-80
2021/07/09 04:53:19;;;;;;;11.53;7.80;;;;;;;23.69;65.61;100137.34;126575;1089;114144;-80
2021/07/09 04:56:07;;;;;;;9.50;5.73;;;;;;;23.77;65.81;100145.52;126652;1089;102961;-79
2021/07/09 04:58:55;;;;;;;11.00;6.47;;;;;;;23.78;65.09;100150.70;126776;1090;114244;-80
2021/07/09 05:01:43;;;;;;;6.83;6.23;;;;;;;23.81;65.11;100152.24;126682;1089;102962;-80
2021/07/09 05:04:31;;;;;;;8.90;6.73;;;;;;;23.85;64.99;100150.14;126593;1089;114204;-80
2021/07/09 05:07:19;;;;;;;9.20;6.47;;;;;;;23.92;64.62;100148.64;126862;1090;103284;-80
2021/07/09 05:10:07;;;;;;;10.60;6.63;;;;;;;24.00;64.10;100149.62;126753;1090;114245;-80
2021/07/09 05:12:56;;;;;;;7.93;6.20;;;;;;;24.11;63.92;100146.00;126673;1089;102891;-79
2021/07/09 05:15:44;;;;;;;8.27;6.20;;;;;;;24.21;63.59;100146.00;126822;1090;113074;-79
2021/07/09 05:18:32;;;;;;;8.00;6.10;;;;;;;24.33;63.22;100142.27;126663;1090;102891;-80
2021/07/09 05:21:21;;;;;;;8.70;6.40;;;;;;;24.51;62.74;100137.91;126593;1088;114396;-80
2021/07/09 05:24:11;;;;;;;9.77;6.43;;;;;;;24.70;62.30;100121.05;126764;1090;102942;-80
2021/07/09 05:26:59;;;;;;;7.67;6.27;;;;;;;24.92;61.58;100126.05;126624;1089;114552;-81
2021/07/09 05:29:48;;;;;;;8.80;6.53;;;;;;;25.15;61.25;100115.08;126652;1090;102885;-80
2021/07/09 05:32:36;;;;;;;10.07;6.30;;;;;;;25.33;60.47;100115.16;126654;1089;103027;-80
2021/07/09 05:35:24;;;;;;;8.23;6.60;;;;;;;25.61;60.27;100116.83;126606;1089;114274;-80
2021/07/09 05:38:12;;;;;;;10.27;6.77;;;;;;;25.86;59.92;100115.33;126752;1088;102908;-80
2021/07/09 05:41:00;;;;;;;7.13;5.90;;;;;;;26.05;59.27;100104.50;126726;1090;114508;-80
2021/07/09 05:43:48;;;;;;;8.25;5.80;;;;;;;26.21;58.89;100093.09;126731;1089;102845;-81
2021/07/09 05:46:36;;;;;;;8.80;6.53;;;;;;;26.40;58.28;100106.36;126696;1089;114328;-80
2021/07/09 05:49:24;;;;;;;9.50;5.73;;;;;;;26.62;58.02;100096.16;126733;1089;102868;-80
2021/07/09 05:52:13;;;;;;;10.80;5.73;;;;;;;26.92;57.90;100103.70;126565;1090;114092;-78
2021/07/09 05:55:01;;;;;;;7.47;5.63;;;;;;;27.46;56.98;100093.63;126698;1088;103023;-78
2021/07/09 05:57:49;;;;;;;7.37;5.60;;;;;;;28.54;55.92;100103.43;126546;1088;114285;-79
2021/07/09 06:00:39;;;;;;;11.77;5.97;;;;;;;29.81;51.24;100101.78;126653;1090;102925;-81
2021/07/09 06:03:27;;;;;;;7.10;5.00;;;;;;;30.87;51.53;100109.89;126669;1089;114508;-78
2021/07/09 06:06:15;;;;;;;7.73;5.33;;;;;;;32.02;49.59;100118.31;126656;1090;102970;-78
2021/07/09 06:09:03;;;;;;;11.63;5.00;;;;;;;32.98;45.52;100133.95;126563;1089;114567;-78
2021/07/09 06:11:51;;;;;;;9.70;5.30;;;;;;;33.54;43.42;100138.45;126668;1089;102938;-78
2021/07/09 06:14:39;;;;;;;12.20;5.53;;;;;;;33.79;44.63;100139.63;126603;1088;103335;-80
2021/07/09 06:17:27;;;;;;;8.43;5.50;;;;;;;33.09;43.05;100150.66;126598;1089;114291;-80
2021/07/09 06:20:15;;;;;;;8.90;5.50;;;;;;;32.15;43.98;100142.73;126684;1090;102930;-80
2021/07/09 06:23:03;;;;;;;10.27;6.00;;;;;;;32.18;44.99;100138.81;126560;1089;114487;-78
2021/07/09 06:25:51;;;;;;;9.27;5.73;;;;;;;32.86;45.24;100140.95;126845;1090;102931;-78
2021/07/09 06:28:39;;;;;;;8.80;5.60;;;;;;;33.70;43.34;100148.09;126709;1089;114070;-80
2021/07/09 06:31:27;;;;;;;14.63;6.23;;;;;;;34.23;41.94;100141.84;126715;1089;102840;-80
2021/07/09 06:34:15;;;;;;;8.43;5.43;;;;;;;34.82;41.20;100130.22;126724;1088;114245;-78
2021/07/09 06:37:04;;;;;;;11.37;6.03;;;;;;;35.47;40.20;100129.52;126773;1088;102931;-79
2021/07/09 06:39:51;;;;;;;9.53;6.37;;;;;;;35.70;38.86;100140.69;126605;1090;114291;-79
2021/07/09 06:42:39;;;;;;;10.77;6.00;;;;;;;36.16;39.32;100150.52;126781;1089;102987;-78
2021/07/09 06:45:27;;;;;;;10.03;5.47;;;;;;;36.70;37.92;100168.13;126597;1090;114611;-79
2021/07/09 06:48:15;;;;;;;10.43;5.73;;;;;;;37.28;39.18;100182.27;126794;1090;102862;-79
2021/07/09 06:51:02;;;;;;;8.33;5.33;;;;;;;37.44;37.98;100186.29;126718;1088;101131;-79
2021/07/09 06:53:51;;;;;;;14.57;5.60;;;;;;;36.75;38.37;100181.87;126710;1090;102980;-79
2021/07/09 06:56:38;;;;;;;8.27;4.63;;;;;;;35.87;38.26;100198.88;126838;1088;103015;-79
2021/07/09 06:59:26;;;;;;;7.83;5.57;;;;;;;34.95;39.74;100177.36;126554;1090;113132;-79
2021/07/09 07:02:14;;;;;;;12.03;6.00;;;;;;;34.13;39.69;100173.06;126703;1090;102914;-79
2021/07/09 07:05:03;;;;;;;7.13;5.13;;;;;;;34.29;40.71;100179.95;126754;1090;113166;-79
2021/07/09 07:07:51;;;;;;;9.30;5.13;;;;;;;34.97;40.53;100194.23;126803;1090;102917;-79
2021/07/09 07:10:43;;;;;;;7.97;5.20;;;;;;;35.24;39.38;100182.34;126515;1090;114305;-79
2021/07/09 07:13:30;;;;;;;9.23;5.50;;;;;;;34.73;38.79;100172.13;126752;1090;102849;-79
2021/07/09 07:16:18;;;;;;;7.13;5.30;;;;;;;34.60;39.65;100169.41;126718;1090;114552;-79
2021/07/09 07:19:06;;;;;;;6.63;5.47;;;;;;;34.34;40.13;100159.36;126837;1090;102860;-79
2021/07/09 07:21:55;;;;;;;8.97;5.63;;;;;;;34.07;41.13;100152.20;126535;1090;114316;-79
2021/07/09 07:24:44;;;;;;;9.60;6.03;;;;;;;34.56;39.81;100151.08;126671;1089;103114;-79
2021/07/09 07:27:33;;;;;;;11.70;5.73;;;;;;;35.39;39.15;100127.89;126639;1090;113340;-78
2021/07/09 07:30:21;;;;;;;7.13;5.70;;;;;;;36.26;38.17;100143.53;126731;1090;102911;-79
2021/07/09 07:33:12;;;;;;;12.03;6.33;;;;;;;37.00;37.30;100150.12;126678;1089;102939;-79
2021/07/09 07:35:59;;;;;;;10.37;5.00;;;;;;;37.61;36.52;100146.53;126620;1090;114445;-79
2021/07/09 07:38:48;;;;;;;13.70;6.00;;;;;;;38.39;34.83;100141.07;126832;1090;102922;-80
2021/07/09 07:41:35;;;;;;;13.53;6.50;;;;;;;39.03;34.35;100132.27;126710;1090;114430;-79
2021/07/09 07:44:26;;;;;;;7.93;5.40;;;;;;;39.39;33.07;100132.01;126666;1088;102948;-80
2021/07/09 07:47:17;;;;;;;11.00;6.37;;;;;;;39.37;32.56;100120.52;126542;1090;114130;-80
2021/07/09 07:50:07;;;;;;;10.80;5.90;;;;;;;39.55;31.96;100130.46;126736;1089;102894;-80
2021/07/09 07:52:55;;;;;;;9.00;5.60;;;;;;;39.38;32.57;100140.44;126574;1090;114622;-79
2021/07/09 07:55:43;;;;;;;8.47;5.87;;;;;;;39.61;31.59;100148.59;126689;1089;103159;-79
2021/07/09 07:58:30;;;;;;;7.83;5.67;;;;;;;39.06;32.46;100131.79;126594;1088;114138;-80
2021/07/09 08:01:19;;;;;;;9.57;6.33;;;;;;;38.44;32.43;100134.12;126836;1088;103038;-80
2021/07/09 08:04:07;;;;;;;12.10;6.43;;;;;;;37.37;32.86;100137.41;126567;1090;114521;-79
2021/07/09 08:06:55;;;;;;;8.07;6.43;;;;;;;36.42;34.91;100128.62;126635;1090;102888;-80
2021/07/09 08:09:43;;;;;;;8.20;6.70;;;;;;;35.62;35.55;100143.66;126554;1090;114403;-80
2021/07/09 08:12:31;;;;;;;11.23;6.70;;;;;;;34.72;36.71;100143.38;126665;1089;102997;-80
2021/07/09 08:15:19;;;;;;;8.17;6.73;;;;;;;33.78;38.16;100161.47;126963;1090;102859;-80
2021/07/09 08:18:06;;;;;;;16.90;7.50;;;;;;;33.01;39.90;100155.16;126568;1090;114062;-79
2021/07/09 08:20:54;;;;;;;10.03;7.27;;;;;;;32.45;41.04;100155.09;126698;1089;100837;-80
2021/07/09 08:23:46;;;;;;;8.90;7.10;;;;;;;32.03;42.08;100149.65;126613;1089;114696;-79
2021/07/09 08:26:34;;;;;;;9.80;7.73;;;;;;;31.67;42.96;100144.21;126590;1090;102954;-79
2021/07/09 08:29:21;;;;;;;10.10;7.73;;;;;;;31.41;43.58;100139.30;126518;1090;114111;-79
2021/07/09 08:32:14;;;;;;;8.63;7.73;;;;;;;31.24;44.05;100134.13;126666;1089;103097;-79
2021/07/09 08:35:04;;;;;;;9.37;6.90;;;;;;;31.49;44.50;100152.69;126517;1089;114447;-79
2021/07/09 08:38:10;;;;;;;9.57;7.20;;;;;;;32.09;44.62;100187.48;126595;1090;102842;-79
2021/07/09 08:40:58;;;;;;;11.80;7.50;;;;;;;32.77;43.42;100190.70;126525;1089;114142;-79
2021/07/09 08:43:50;;;;;;;9.93;7.10;;;;;;;32.64;43.29;100182.47;126653;1090;102852;-79
2021/07/09 08:46:38;;;;;;;8.70;6.17;;;;;;;33.12;43.74;100170.01;126489;1090;113333;-79
2021/07/09 08:49:27;;;;;;;9.63;6.33;;;;;;;34.20;43.26;100161.20;126599;1090;102996;-79
2021/07/09 08:52:15;;;;;;;7.87;6.63;;;;;;;35.25;41.37;100159.60;126562;1090;114391;-79
2021/07/09 08:55:11;;;;;;;10.43;6.40;;;;;;;36.13;40.15;100156.38;126638;1089;103027;-79
2021/07/09 08:58:00;;;;;;;;;;;;;;;37.08;37.97;100157.97;126536;1090;114599;-80
2021/07/09 09:01:04;;;;;;;8.60;6.23;;;;;;;37.84;37.50;100159.45;126613;1090;102956;-80
2021/07/09 09:04:06;;;;;;;6.57;5.87;;;;;;;38.75;37.23;100152.05;126424;1089;114556;-80
2021/07/09 09:06:59;;;;;;;9.27;5.70;;;;;;;39.39;36.05;100137.47;126652;1090;103094;-80
2021/07/09 09:09:47;;;;;;;8.83;5.50;;;;;;;39.73;35.86;100140.38;126613;1089;102851;-80
2021/07/09 09:13:21;;;;;;;5.97;5.37;;;;;;;40.10;35.23;100125.27;126594;1090;102873;-80
2021/07/09 09:16:14;;;;;;;6.43;5.07;;;;;;;40.06;33.77;100117.81;126702;1089;102227;-78
2021/07/09 09:19:02;;;;;;;9.83;5.90;;;;;;;39.65;34.29;100111.53;126592;1090;102647;-80
2021/07/09 09:22:09;;;;;;;6.40;4.87;;;;;;;39.76;35.03;100107.12;126674;1090;103012;-80
2021/07/09 09:25:00;;;;;;;7.40;5.30;;;;;;;39.82;34.60;100106.13;126618;1090;114080;-80
2021/07/09 09:28:10;;;;;;;10.33;5.70;;;;;;;39.84;34.77;100093.05;126661;1089;102853;-80
2021/07/09 09:30:58;;;;;;;5.73;5.13;;;;;;;40.05;34.26;100086.95;126538;1090;114256;-80
2021/07/09 09:33:46;;;;;;;6.40;5.30;;;;;;;40.39;34.78;100078.77;126617;1089;102827;-80
2021/07/09 09:36:34;;;;;;;7.87;5.23;;;;;;;40.79;34.00;100091.42;126758;1090;114438;-80
2021/07/09 09:39:22;;;;;;;7.00;4.87;;;;;;;40.92;33.83;100096.55;126755;1089;102930;-78
2021/07/09 09:42:19;;;;;;;9.17;5.40;;;;;;;41.19;33.61;100088.44;126673;1089;114111;-80
2021/07/09 09:45:08;;;;;;;8.13;5.30;;;;;;;41.48;32.47;100080.90;126804;1089;101406;-78
2021/07/09 09:48:07;;;;;;;11.47;5.20;;;;;;;41.53;32.26;100091.90;126591;1090;114310;-80
2021/07/09 09:50:54;;;;;;;5.83;4.93;;;;;;;41.64;31.92;100104.59;126854;1089;103009;-79
2021/07/09 09:53:42;;;;;;;6.03;4.80;;;;;;;41.52;31.67;100109.41;126568;1090;114582;-78
2021/07/09 09:56:50;;;;;;;8.03;5.10;;;;;;;41.02;32.62;100099.44;126692;1089;101211;-78
2021/07/09 09:59:41;;;;;;;6.10;5.50;;;;;;;41.09;32.58;100094.59;126551;1089;114252;-79
2021/07/09 10:02:29;;;;;;;5.57;4.77;;;;;;;41.26;32.24;100100.88;126827;1088;102948;-79
2021/07/09 10:05:16;;;;;;;12.07;6.40;;;;;;;41.18;31.67;100093.09;126733;1088;113236;-78
2021/07/09 10:08:11;;;;;;;7.43;5.83;;;;;;;41.39;31.62;100090.63;126842;1090;102927;-79
2021/07/09 10:11:02;;;;;;;13.00;6.80;;;;;;;41.54;31.31;100093.55;126599;1090;114320;-81
2021/07/09 10:13:51;;;;;;;8.43;6.37;;;;;;;41.67;30.64;100100.58;126835;1089;102833;-81
2021/07/09 10:16:41;;;;;;;7.73;6.47;;;;;;;41.40;31.44;100100.49;126922;1089;102996;-81
2021/07/09 10:19:37;;;;;;;8.03;5.60;;;;;;;41.35;31.51;100102.09;126850;1088;102918;-80
2021/07/09 10:22:46;;;;;;;12.20;6.57;;;;;;;41.43;31.26;100105.45;126787;1090;102740;-79
2021/07/09 10:25:35;;;;;;;12.53;6.53;;;;;;;41.54;31.83;100101.77;126596;1089;114491;-79
2021/07/09 10:28:23;;;;;;;10.77;7.00;;;;;;;41.67;31.22;100104.14;126918;1088;102872;-79
2021/07/09 10:31:34;;;;;;;10.60;6.27;;;;;;;41.53;31.48;100108.33;126733;1090;114629;-80
2021/07/09 10:34:50;;;;;;;9.57;6.53;;;;;;;40.96;31.44;100108.66;126829;1089;103031;-79
2021/07/09 10:37:39;;;;;;;7.87;6.10;;;;;;;40.70;31.93;100097.30;126831;1090;114323;-81
2021/07/09 10:40:29;;;;;;;11.30;6.70;;;;;;;40.74;31.85;100092.98;126793;1089;102873;-81
2021/07/09 10:43:18;;;;;;;8.97;6.50;;;;;;;40.78;32.06;100095.24;126707;1090;114404;-80
2021/07/09 10:46:08;;;;;;;10.10;6.67;;;;;;;40.88;31.94;100092.67;126640;1090;103063;-80
2021/07/09 10:48:55;;;;;;;8.30;6.60;;;;;;;40.80;31.40;100090.34;126557;1090;114360;-78
2021/07/09 10:51:51;;;;;;;13.77;8.03;;;;;;;40.61;31.40;100079.69;126937;1090;101773;-79
2021/07/09 10:54:39;;;;;;;10.35;8.55;;;;;;;40.37;32.30;100072.70;126683;1090;114388;-79
2021/07/09 10:57:27;;;;;;;10.93;8.03;;;;;;;40.10;31.61;100076.09;126949;1090;102841;-79
2021/07/09 11:00:26;;;;;;;8.00;7.03;;;;;;;39.87;32.74;100068.02;126697;1090;113239;-81
2021/07/09 11:03:41;;;;;;;9.20;6.73;;;;;;;39.63;32.85;100071.91;126793;1090;102863;-80
2021/07/09 11:06:32;;;;;;;6.80;6.10;;;;;;;39.45;32.97;100062.81;126909;1089;114137;-80
2021/07/09 11:09:38;;;;;;;11.00;8.00;;;;;;;39.23;33.77;100059.09;126965;1090;102878;-80
2021/07/09 11:12:30;;;;;;;10.00;7.33;;;;;;;39.07;33.52;100048.91;126903;1088;113278;-80
2021/07/09 11:15:24;;;;;;;9.47;7.70;;;;;;;38.85;34.13;100041.36;126797;1090;102851;-80
2021/07/09 11:18:16;;;;;;;9.80;7.13;;;;;;;38.64;34.66;100047.43;126637;1090;114116;-80
2021/07/09 11:21:09;;;;;;;8.67;7.77;;;;;;;38.52;35.01;100041.11;126861;1088;102857;-80
2021/07/09 11:24:10;;;;;;;11.10;8.20;;;;;;;38.44;34.58;100033.30;126594;1090;114336;-80
2021/07/09 11:27:06;;;;;;;9.60;7.80;;;;;;;38.30;34.97;100033.53;126822;1090;102923;-80
2021/07/09 11:30:02;;;;;;;12.90;9.03;;;;;;;38.13;34.53;100031.70;126863;1090;114497;-80
2021/07/09 11:32:49;;;;;;;14.67;9.20;;;;;;;37.82;34.69;100019.20;126970;1088;102987;-80
2021/07/09 11:35:37;;;;;;;12.93;9.47;;;;;;;37.35;35.27;100025.28;126756;1090;114439;-80
2021/07/09 11:38:25;;;;;;;14.57;9.37;;;;;;;37.00;35.58;100027.78;126828;1090;102905;-80
2021/07/09 11:41:13;;;;;;;13.40;9.67;;;;;;;36.74;35.99;100020.70;126846;1090;103116;-80
2021/07/09 11:44:01;;;;;;;19.23;10.37;;;;;;;36.63;36.41;100016.03;126910;1090;103385;-80
2021/07/09 11:46:52;;;;;;;16.43;11.00;;;;;;;36.49;36.83;100012.61;126897;1090;104482;-80
2021/07/09 11:49:44;;;;;;;12.93;9.93;;;;;;;36.33;37.42;100015.89;126850;1090;113350;-80
2021/07/09 11:52:36;;;;;;;12.00;10.77;;;;;;;36.13;36.62;100015.20;126795;1090;102857;-79
2021/07/09 11:55:29;;;;;;;15.03;10.47;;;;;;;35.59;36.88;100014.72;126558;1090;114815;-80
2021/07/09 11:58:21;;;;;;;11.10;9.60;;;;;;;35.22;38.21;100010.92;126809;1089;102645;-81
2021/07/09 12:01:18;;;;;;;16.03;10.77;;;;;;;35.23;38.47;100019.88;126676;1090;113288;-81
2021/07/09 12:04:06;;;;;;;11.77;10.03;;;;;;;35.02;37.90;100021.84;126787;1090;102844;-81
2021/07/09 12:07:23;;;;;;;13.50;10.15;;;;;;;34.77;38.04;100021.66;126702;1088;114727;-81
2021/07/09 12:10:13;;;;;;;11.97;9.67;;;;;;;34.58;38.84;100011.70;126943;1089;102859;-81
2021/07/09 12:13:05;;;;;;;15.37;10.47;;;;;;;34.46;38.95;100011.49;126823;1090;114250;-81
2021/07/09 12:16:03;;;;;;;13.43;9.83;;;;;;;34.40;39.77;100006.09;126844;1090;103026;-81
2021/07/09 12:18:52;;;;;;;11.83;10.63;;;;;;;34.36;39.50;99992.16;126674;1089;114499;-81
2021/07/09 12:21:44;;;;;;;11.13;10.03;;;;;;;34.32;39.26;100007.13;126828;1088;102744;-81
2021/07/09 12:24:32;;;;;;;11.13;10.10;;;;;;;34.23;39.42;100002.95;126837;1090;114577;-81
2021/07/09 12:27:21;;;;;;;13.80;10.23;;;;;;;34.02;39.44;99997.75;126741;1090;102884;-81
2021/07/09 12:30:13;;;;;;;12.37;10.30;;;;;;;33.90;39.46;99995.66;126772;1089;114742;-81
2021/07/09 12:33:07;;;;;;;17.40;11.23;;;;;;;33.73;40.15;99990.81;126818;1089;102785;-81
2021/07/09 12:36:11;;;;;;;9.98;8.95;;;;;;;33.70;40.34;99977.70;126712;1089;114436;-81
2021/07/09 12:39:00;;;;;;;14.57;9.70;;;;;;;33.75;40.78;99970.63;126880;1090;102927;-81
2021/07/09 12:41:47;;;;;;;12.40;10.13;;;;;;;33.75;40.91;99986.03;126836;1090;102683;-81
2021/07/09 12:44:35;;;;;;;11.00;9.73;;;;;;;33.57;40.09;99979.34;126697;1090;114297;-81
2021/07/09 12:47:23;;;;;;;13.57;9.80;;;;;;;33.39;40.83;99962.87;126715;1090;102948;-81
2021/07/09 12:50:20;;;;;;;15.97;10.80;;;;;;;33.35;40.93;99956.20;126634;1089;114499;-81